Balneario Camboriu, Brazil
Current Conditions -  °F | °C
As of 9:00 PM on Saturday 25 Oct 2014 (Local Time) from SBNF Reporting Station
Broken Clouds Broken Clouds  
Wind Chill: 75°   Ceiling: 5000
Heat Index: 75°   Visibility: 6mi
Dew Point: 66°   Wind: 8mph
Humidity: 73%   Direction: 50°NE
Pressure: 29.91"   Gusts: NA
Location:  26.99°S, 48.63°W
Report Text: SBNF 252300Z 05007KT 9999 SCT012 BKN050 24/19 Q1013
Loading
Personal Weather Stations






























Interactive Weather Map
Tropical Storm Tracking
New forecast layout! Learn more

10-Day Weather Forecast

Advertisements
Track Severe Weather on mobile